Airfield :
LOGIN :

Register | Disclaimer

   EN    FR    IT 

 










Legend :    VFR   Marginal VFR   IFR   Intensive IFR   Very Intensive IFR
Visi :
Ceiling :
>= 8 km
>= 3000ft
5 to 8 km
1000 to 3000 ft
1500m to 5 km
500 to 1000 ft
800 to 1500m
200 to 500 ft
< 800m
< 200 ft
Symbols :   Thunderstorms  Fog  Heavy snow  Heavy precipitations  Wind > 20 kt
SIGMETs :     Misc.  Thunderstorms  Icing  Turbulence  Mountain Waves  Volcanic Ashes







- Airport Elevation : 184 ft
- IATA code : BRU


EBBR - Bruxelles

CURRENT METAR :
  • 240520Z 15002KT 9000 -RA SCT034 BKN047 07/06 Q1005 NOSIG

EXPIRED METARs :
  • 240450Z 00000KT 9000 -RA FEW012 07/06 Q1005 NOSIG
  • 240420Z 31006KT 4800 -RA BR BKN006 BKN022 07/06 Q1007 NOSIG
  • 240350Z 30004KT 270V330 5000 BR SCT004 BKN007 BKN010 08/07 Q1006 RERA NOSIG
  • 240320Z VRB02KT 4000 RA BR SCT010 BKN016 BKN020 08/07 Q1006 NOSIG
  • 240250Z 20002KT 5000 RA BR FEW004 SCT008 BKN021 08/07 Q1006 NOSIG

TAF TAF EBBR
Valid from the 24 at 06:00 until the 25 at 12:00 UTC


240510Z 2406/2512 29005KT SCT008 BKN016
TEMPO 2406/2409 4000 RA SHRA SCT004 BKN008
PROB40
TEMPO 2414/2422 4000 SHRA SCT008 BKN012TCU
PROB40
TEMPO 2503/2512 4000 SHRA SCT008 BKN012TCU
No reported NOTAMs for that airfield.



MET'MAP, your aeronautical weather chart ! - Copyright ORBIFLY December 2007 - Disclaimer

ORBIFLY MET'MAP TEAM :

Programming & Development : Alexandra Zaïnal
Concept & Development : Baudouin d'Aumeries
Co-Development & Prog : Marc-Olivier Méhu
Technical & hardware support : Manuel Goepfert

Contact : metmap@orbifly.com




SOURCES & CREDITS :

   NOAA